createdAt,value
2018-09-17T00:00:27.455Z,9.58
2018-09-17T00:01:26.857Z,9.57
2018-09-17T00:02:25.863Z,9.54
2018-09-17T00:03:26.823Z,9.60
2018-09-17T00:04:26.769Z,9.47
2018-09-17T00:05:25.921Z,9.51
2018-09-17T00:06:26.400Z,9.47
2018-09-17T00:07:25.826Z,9.40
2018-09-17T00:08:26.738Z,9.46
2018-09-17T00:09:26.705Z,9.40
2018-09-17T00:10:25.708Z,9.40
2018-09-17T00:11:26.008Z,9.33
2018-09-17T00:12:25.624Z,9.38
2018-09-17T00:13:25.616Z,9.40
2018-09-17T00:14:26.706Z,9.35
2018-09-17T00:15:26.623Z,9.32
2018-09-17T00:16:26.625Z,9.31
2018-09-17T00:17:26.405Z,9.20
2018-09-17T00:18:26.604Z,9.17
2018-09-17T00:19:25.529Z,9.17
2018-09-17T00:20:25.626Z,9.15
2018-09-17T00:21:25.714Z,9.13
2018-09-17T00:22:27.463Z,9.20
2018-09-17T00:23:27.575Z,9.17
2018-09-17T00:24:27.656Z,9.17
2018-09-17T00:25:27.601Z,9.14
2018-09-17T00:27:40.860Z,9.18
2018-09-17T00:28:45.056Z,9.14
2018-09-17T00:29:40.403Z,9.20
2018-09-17T00:30:40.018Z,9.13
2018-09-17T00:31:40.009Z,9.14
2018-09-17T00:32:40.094Z,9.14
2018-09-17T00:33:41.919Z,9.21
2018-09-17T00:34:40.079Z,9.17
2018-09-17T00:35:41.040Z,9.14
2018-09-17T00:36:39.955Z,9.05
2018-09-17T00:37:39.958Z,9.11
2018-09-17T00:38:40.091Z,9.18
2018-09-17T00:39:39.947Z,9.13
2018-09-17T00:42:17.007Z,9.10
2018-09-17T00:42:53.071Z,9.02
2018-09-17T00:43:52.855Z,9.05
2018-09-17T00:44:52.814Z,9.04
2018-09-17T00:45:52.797Z,8.99
2018-09-17T00:46:52.779Z,9.05
2018-09-17T00:47:52.741Z,9.11
2018-09-17T00:48:52.825Z,9.01
2018-09-17T00:49:52.727Z,8.96
2018-09-17T00:50:52.687Z,9.01
2018-09-17T00:51:52.695Z,9.02
2018-09-17T00:52:52.708Z,8.95
2018-09-17T00:53:52.719Z,8.95
2018-09-17T00:54:53.356Z,8.92
2018-09-17T00:56:16.334Z,8.89
2018-09-17T00:56:52.729Z,8.86
2018-09-17T00:57:53.822Z,8.79
2018-09-17T00:58:52.682Z,8.84
2018-09-17T00:59:52.802Z,8.80
2018-09-17T01:00:53.029Z,8.92
2018-09-17T01:01:52.674Z,8.86
2018-09-17T01:02:54.488Z,8.74
2018-09-17T01:03:53.643Z,8.74
2018-09-17T01:04:52.566Z,8.84
2018-09-17T01:05:52.629Z,8.76
2018-09-17T01:06:52.556Z,8.86
2018-09-17T01:07:54.375Z,8.71
2018-09-17T01:08:52.597Z,8.79
2018-09-17T01:09:52.600Z,8.81
2018-09-17T01:10:53.545Z,8.76
2018-09-17T01:11:52.509Z,8.71
2018-09-17T01:12:52.530Z,8.71
2018-09-17T01:13:52.877Z,8.71
2018-09-17T01:14:52.592Z,8.68
2018-09-17T01:15:52.481Z,8.65
2018-09-17T01:16:52.520Z,8.62
2018-09-17T01:17:55.351Z,8.65
2018-09-17T01:18:52.523Z,8.62
2018-09-17T01:19:52.449Z,8.53
2018-09-17T01:20:52.501Z,8.56
2018-09-17T01:21:52.450Z,8.52
2018-09-17T01:22:52.424Z,8.55
2018-09-17T01:23:56.446Z,8.61
2018-09-17T01:24:53.415Z,8.55
2018-09-17T01:25:52.403Z,8.61
2018-09-17T01:26:53.519Z,8.56
2018-09-17T01:27:53.914Z,8.61
2018-09-17T01:28:53.438Z,8.56
2018-09-17T01:29:52.293Z,8.53
2018-09-17T01:30:53.470Z,8.53
2018-09-17T01:31:53.388Z,8.48
2018-09-17T01:32:52.365Z,8.45
2018-09-17T01:33:52.335Z,8.48
2018-09-17T01:34:53.893Z,8.48
2018-09-17T01:35:53.840Z,8.44
2018-09-17T01:36:52.798Z,8.48
2018-09-17T01:37:53.807Z,8.47
2018-09-17T01:38:52.217Z,8.45
2018-09-17T01:39:53.153Z,8.40
2018-09-17T01:40:53.903Z,8.38
2018-09-17T01:41:52.324Z,8.41
2018-09-17T01:42:52.241Z,8.40
2018-09-17T01:43:53.174Z,8.41
2018-09-17T01:44:53.849Z,8.41
2018-09-17T01:45:53.183Z,8.37
2018-09-17T01:46:52.443Z,8.37
2018-09-17T01:47:54.977Z,8.29
2018-09-17T01:48:52.104Z,8.23
2018-09-17T01:49:53.968Z,8.29
2018-09-17T01:50:52.182Z,8.20
2018-09-17T01:51:54.965Z,8.15
2018-09-17T01:52:52.204Z,8.19
2018-09-17T01:53:52.994Z,8.16
2018-09-17T01:54:52.951Z,8.18
2018-09-17T01:56:18.875Z,8.05
2018-09-17T01:56:52.114Z,8.07
2018-09-17T01:57:52.829Z,8.15
2018-09-17T01:58:52.896Z,8.10
2018-09-17T01:59:53.393Z,8.10
2018-09-17T02:00:51.997Z,8.05
2018-09-17T02:01:52.042Z,8.11
2018-09-17T02:02:52.055Z,8.10
2018-09-17T02:03:52.006Z,8.12
2018-09-17T02:04:54.961Z,8.15
2018-09-17T02:05:52.010Z,8.12
2018-09-17T02:06:51.991Z,8.07
2018-09-17T02:07:51.933Z,8.15
2018-09-17T02:08:52.475Z,8.00
2018-09-17T02:09:51.982Z,8.08
2018-09-17T02:11:02.515Z,8.07
2018-09-17T02:11:53.837Z,7.95
2018-09-17T02:12:53.386Z,8.00
2018-09-17T02:13:51.820Z,8.07
2018-09-17T02:14:54.405Z,7.97
2018-09-17T02:15:58.960Z,7.97
2018-09-17T02:16:52.587Z,7.97
2018-09-17T02:17:54.653Z,7.95
2018-09-17T02:18:51.829Z,7.87
2018-09-17T02:19:52.917Z,7.92
2018-09-17T02:20:51.756Z,7.89
2018-09-17T02:21:56.024Z,7.89
2018-09-17T02:22:51.800Z,7.92
2018-09-17T02:23:51.807Z,7.89
2018-09-17T02:24:53.361Z,7.90
2018-09-17T02:25:53.420Z,7.92
2018-09-17T02:26:51.796Z,7.87
2018-09-17T02:27:51.692Z,7.95
2018-09-17T02:28:52.680Z,7.90
2018-09-17T02:29:51.666Z,7.95
2018-09-17T02:30:51.648Z,7.95
2018-09-17T02:31:52.684Z,7.92
2018-09-17T02:32:51.536Z,7.89
2018-09-17T02:33:51.588Z,7.92
2018-09-17T02:34:51.542Z,7.92
2018-09-17T02:35:51.591Z,7.87
2018-09-17T02:36:51.574Z,7.89
2018-09-17T02:37:51.503Z,7.87
2018-09-17T02:38:51.519Z,7.92
2018-09-17T02:39:51.492Z,7.95
2018-09-17T02:41:23.474Z,7.85
2018-09-17T02:41:51.490Z,7.83
2018-09-17T02:42:52.466Z,7.83
2018-09-17T03:01:12.379Z,7.75
2018-09-17T03:02:07.050Z,7.79
2018-09-17T03:03:05.999Z,7.77
2018-09-17T03:04:05.994Z,7.80
2018-09-17T03:05:07.107Z,7.80
2018-09-17T03:06:06.186Z,7.80
2018-09-17T03:07:07.252Z,7.82
2018-09-17T03:08:06.628Z,7.68
2018-09-17T03:09:05.994Z,7.71
2018-09-17T03:10:05.967Z,7.68
2018-09-17T03:11:07.090Z,7.77
2018-09-17T03:12:06.954Z,7.74
2018-09-17T03:13:08.639Z,7.71
2018-09-17T03:14:06.935Z,7.72
2018-09-17T03:15:06.077Z,7.63
2018-09-17T03:16:05.884Z,7.69
2018-09-17T03:17:05.955Z,7.67
2018-09-17T03:18:05.986Z,7.67
2018-09-17T03:19:06.603Z,7.63
2018-09-17T03:20:06.900Z,7.63
2018-09-17T03:21:06.863Z,7.67
2018-09-17T03:22:05.855Z,7.69
2018-09-17T03:23:07.085Z,7.68
2018-09-17T03:24:07.636Z,7.58
2018-09-17T03:25:06.957Z,7.67
2018-09-17T03:26:05.750Z,7.55
2018-09-17T03:27:05.854Z,7.60
2018-09-17T03:28:05.758Z,7.68
2018-09-17T03:29:07.808Z,7.67
2018-09-17T03:30:20.602Z,7.57
2018-09-17T03:31:05.989Z,7.55
2018-09-17T03:32:06.003Z,7.52
2018-09-17T03:33:10.237Z,7.61
2018-09-17T03:34:07.837Z,7.52
2018-09-17T03:35:07.733Z,7.60
2018-09-17T03:36:06.707Z,7.53
2018-09-17T03:37:06.700Z,7.58
2018-09-17T03:38:05.778Z,7.42
2018-09-17T03:39:05.705Z,7.52
2018-09-17T03:40:06.704Z,7.42
2018-09-17T03:41:07.320Z,7.42
2018-09-17T03:42:06.710Z,7.40
2018-09-17T03:43:07.258Z,7.46
2018-09-17T03:44:06.331Z,7.43
2018-09-17T03:45:07.690Z,7.43
2018-09-17T03:46:06.255Z,7.49
2018-09-17T03:47:05.780Z,7.53
2018-09-17T03:48:06.944Z,7.50
2018-09-17T03:49:06.631Z,7.45
2018-09-17T03:50:06.716Z,7.55
2018-09-17T03:51:06.658Z,7.52
2018-09-17T03:52:07.291Z,7.60
2018-09-17T03:53:06.243Z,7.52
2018-09-17T03:54:08.261Z,7.52
2018-09-17T03:55:05.509Z,7.57
2018-09-17T03:56:16.159Z,7.53
2018-09-17T03:57:07.283Z,7.53
2018-09-17T03:58:05.544Z,7.42
2018-09-17T03:59:06.387Z,7.53
2018-09-17T04:00:05.802Z,7.53
2018-09-17T04:01:06.443Z,7.52
2018-09-17T04:02:06.490Z,7.37
2018-09-17T04:03:09.174Z,7.45
2018-09-17T04:04:05.500Z,7.52
2018-09-17T04:05:08.207Z,7.48
2018-09-17T04:06:06.525Z,7.39
2018-09-17T04:07:06.560Z,7.52
2018-09-17T04:08:07.299Z,7.39
2018-09-17T04:09:05.493Z,7.45
2018-09-17T04:10:06.240Z,7.40
2018-09-17T04:11:07.698Z,7.37
2018-09-17T04:12:06.177Z,7.42
2018-09-17T04:13:06.207Z,7.37
2018-09-17T04:14:06.208Z,7.24
2018-09-17T04:15:05.835Z,7.37
2018-09-17T04:16:06.382Z,7.31
2018-09-17T04:17:06.205Z,7.35
2018-09-17T04:18:06.121Z,7.31
2018-09-17T04:19:05.145Z,7.31
2018-09-17T04:20:05.247Z,7.45
2018-09-17T04:21:05.190Z,7.27
2018-09-17T04:22:06.239Z,7.32
2018-09-17T04:23:06.716Z,7.34
2018-09-17T04:24:05.764Z,7.31
2018-09-17T04:25:05.301Z,7.25
2018-09-17T04:26:07.828Z,7.32
2018-09-17T04:27:06.161Z,7.31
2018-09-17T04:28:05.717Z,7.32
2018-09-17T04:29:06.700Z,7.31
2018-09-17T04:30:06.227Z,7.34
2018-09-17T04:31:05.728Z,7.30
2018-09-17T04:32:06.166Z,7.25
2018-09-17T04:33:05.318Z,7.21
2018-09-17T04:34:05.804Z,7.27
2018-09-17T04:35:05.821Z,7.23
2018-09-17T04:36:06.022Z,7.16
2018-09-17T04:37:06.713Z,7.25
2018-09-17T04:38:06.348Z,7.25
2018-09-17T04:39:05.241Z,7.16
2018-09-17T04:40:06.079Z,7.23
2018-09-17T04:41:05.031Z,7.17
2018-09-17T04:42:07.757Z,7.27
2018-09-17T04:43:05.951Z,7.27
2018-09-17T04:44:04.877Z,7.24
2018-09-17T04:45:04.865Z,7.21
2018-09-17T04:46:05.132Z,7.27
2018-09-17T04:47:09.723Z,7.23
2018-09-17T04:48:04.792Z,7.21
2018-09-17T04:49:04.914Z,7.28
2018-09-17T04:50:05.765Z,7.24
2018-09-17T04:51:06.338Z,7.27
2018-09-17T04:52:04.757Z,7.24
2018-09-17T04:53:04.822Z,7.27
2018-09-17T04:54:04.819Z,7.27
2018-09-17T04:55:06.781Z,7.25
2018-09-17T04:56:15.289Z,7.28
2018-09-17T04:57:04.751Z,7.27
2018-09-17T04:58:05.026Z,7.23
2018-09-17T04:59:04.801Z,7.21
2018-09-17T05:00:04.944Z,7.23
2018-09-17T05:01:04.645Z,7.23
2018-09-17T05:02:04.610Z,7.31
2018-09-17T05:03:04.560Z,7.31
2018-09-17T05:04:05.081Z,7.32
2018-09-17T05:05:04.520Z,7.27
2018-09-17T05:06:04.574Z,7.32
2018-09-17T05:07:04.512Z,7.34
2018-09-17T05:08:04.489Z,7.30
2018-09-17T05:09:04.556Z,7.30
2018-09-17T05:10:04.507Z,7.30
2018-09-17T05:11:19.183Z,7.34
2018-09-17T05:12:04.465Z,7.30
2018-09-17T05:13:04.494Z,7.32
2018-09-17T05:14:05.074Z,7.40
2018-09-17T05:15:04.426Z,7.43
2018-09-17T05:16:04.409Z,7.40
2018-09-17T05:17:04.399Z,7.43
2018-09-17T05:18:04.388Z,7.42
2018-09-17T05:19:04.365Z,7.52
2018-09-17T05:20:04.344Z,7.55
2018-09-17T05:21:04.331Z,7.50
2018-09-17T05:22:04.344Z,7.60
2018-09-17T05:23:04.337Z,7.61
2018-09-17T05:24:04.302Z,7.71
2018-09-17T05:25:04.296Z,7.79
2018-09-17T05:26:04.300Z,7.83
2018-09-17T05:27:04.286Z,7.90
2018-09-17T05:28:04.252Z,7.89
2018-09-17T05:29:04.245Z,7.92
2018-09-17T05:30:04.229Z,7.90
2018-09-17T05:31:04.245Z,7.92
2018-09-17T05:32:04.237Z,7.97
2018-09-17T05:33:04.199Z,7.95
2018-09-17T05:34:04.188Z,7.95
2018-09-17T05:35:04.195Z,7.97
2018-09-17T05:36:04.243Z,7.95
2018-09-17T05:37:04.192Z,8.04
2018-09-17T05:38:04.147Z,8.07
2018-09-17T05:39:04.158Z,8.12
2018-09-17T05:40:04.128Z,7.95
2018-09-17T05:41:05.116Z,8.02
2018-09-17T05:42:04.121Z,8.12
2018-09-17T05:43:04.118Z,8.11
2018-09-17T05:44:04.087Z,8.11
2018-09-17T05:45:05.077Z,8.08
2018-09-17T05:46:04.082Z,8.12
2018-09-17T05:47:04.063Z,8.15
2018-09-17T05:48:04.028Z,8.05
2018-09-17T05:49:04.080Z,8.02
2018-09-17T05:50:04.006Z,8.08
2018-09-17T05:51:04.015Z,8.15
2018-09-17T05:52:04.041Z,8.15
2018-09-17T05:53:03.981Z,8.18
2018-09-17T05:54:03.995Z,8.16
2018-09-17T05:55:03.964Z,8.15
2018-09-17T05:56:03.937Z,8.16
2018-09-17T05:57:03.920Z,8.12
2018-09-17T05:58:03.934Z,8.16
2018-09-17T05:59:03.907Z,8.15
2018-09-17T06:00:03.944Z,8.16
2018-09-17T06:01:03.878Z,8.28
2018-09-17T06:02:03.861Z,8.33
2018-09-17T06:03:03.856Z,8.26
2018-09-17T06:04:03.855Z,8.23
2018-09-17T06:05:03.850Z,8.34
2018-09-17T06:06:03.951Z,8.36
2018-09-17T06:07:03.881Z,8.36
2018-09-17T06:08:03.812Z,8.50
2018-09-17T06:09:03.801Z,8.45
2018-09-17T06:10:03.834Z,8.53
2018-09-17T06:11:03.878Z,8.50
2018-09-17T06:12:03.756Z,8.55
2018-09-17T06:13:03.736Z,8.58
2018-09-17T06:14:03.752Z,8.66
2018-09-17T06:15:04.747Z,8.74
2018-09-17T06:16:03.702Z,8.77
2018-09-17T06:17:03.696Z,8.83
2018-09-17T06:18:03.704Z,8.80
2018-09-17T06:19:03.665Z,8.81
2018-09-17T06:20:03.666Z,8.86
2018-09-17T06:21:03.693Z,8.89
2018-09-17T06:22:03.664Z,9.02
2018-09-17T06:23:03.626Z,9.01
2018-09-17T06:24:03.649Z,9.26
2018-09-17T06:25:03.609Z,9.84
2018-09-17T06:26:03.616Z,10.67
2018-09-17T06:27:03.594Z,11.80
2018-09-17T06:28:03.624Z,12.70
2018-09-17T06:29:03.565Z,13.60
2018-09-17T06:30:03.554Z,14.24
2018-09-17T06:31:03.535Z,14.98
2018-09-17T06:32:03.546Z,15.65
2018-09-17T06:33:03.513Z,16.24
2018-09-17T06:34:03.521Z,17.01
2018-09-17T06:35:03.494Z,17.70
2018-09-17T06:36:03.489Z,18.30
2018-09-17T06:37:03.467Z,18.98
2018-09-17T06:38:03.473Z,19.69
2018-09-17T06:39:03.445Z,20.24
2018-09-17T06:40:03.432Z,20.82
2018-09-17T06:41:03.489Z,21.14
2018-09-17T06:42:03.414Z,21.67
2018-09-17T06:43:03.401Z,21.99
2018-09-17T06:44:03.386Z,22.30
2018-09-17T06:45:03.414Z,22.64
2018-09-17T06:46:03.370Z,23.01
2018-09-17T06:47:03.386Z,23.20
2018-09-17T06:48:03.337Z,23.53
2018-09-17T06:49:03.330Z,23.80
2018-09-17T06:50:03.336Z,24.02
2018-09-17T06:51:03.315Z,24.28
2018-09-17T06:52:03.322Z,24.35
2018-09-17T06:53:03.291Z,24.62
2018-09-17T06:54:03.306Z,24.76
2018-09-17T06:55:03.277Z,24.91
2018-09-17T06:56:03.252Z,25.06
2018-09-17T06:57:03.248Z,25.17
2018-09-17T06:58:03.267Z,25.32
2018-09-17T06:59:03.223Z,25.45
2018-09-17T07:00:03.217Z,25.67
2018-09-17T07:01:03.220Z,25.70
2018-09-17T07:02:03.186Z,25.76
2018-09-17T07:03:03.175Z,25.88
2018-09-17T07:04:03.177Z,25.94
2018-09-17T07:05:03.158Z,26.15
2018-09-17T07:06:03.162Z,26.20
2018-09-17T07:07:03.161Z,26.25
2018-09-17T07:08:03.121Z,26.32
2018-09-17T07:09:03.129Z,26.40
2018-09-17T07:10:03.102Z,26.57
2018-09-17T07:11:03.090Z,26.67
2018-09-17T07:12:03.082Z,26.67
2018-09-17T07:13:03.068Z,26.67
2018-09-17T07:14:03.111Z,26.70
2018-09-17T07:15:03.048Z,26.75
2018-09-17T07:16:03.043Z,26.89
2018-09-17T07:17:03.029Z,26.84
2018-09-17T07:18:03.033Z,26.81
2018-09-17T07:19:02.994Z,26.85
2018-09-17T07:20:03.006Z,26.89
2018-09-17T07:21:03.008Z,27.14
2018-09-17T07:22:02.959Z,27.14
2018-09-17T07:23:02.948Z,27.12
2018-09-17T07:24:02.944Z,27.13
2018-09-17T07:25:02.927Z,27.14
2018-09-17T07:26:02.937Z,27.07
2018-09-17T07:27:02.915Z,26.95
2018-09-17T07:28:02.894Z,26.84
2018-09-17T07:29:02.893Z,26.73
2018-09-17T07:30:02.876Z,26.77
2018-09-17T07:31:02.877Z,26.72
2018-09-17T07:32:02.853Z,26.84
2018-09-17T07:33:02.839Z,26.92
2018-09-17T07:34:02.823Z,26.88
2018-09-17T07:35:02.818Z,27.03
2018-09-17T07:36:02.843Z,27.07
2018-09-17T07:37:02.786Z,26.95
2018-09-17T07:38:02.778Z,26.88
2018-09-17T07:39:02.769Z,26.84
2018-09-17T07:40:02.757Z,26.63
2018-09-17T07:41:02.749Z,26.48
2018-09-17T07:42:02.801Z,26.39
2018-09-17T07:43:02.748Z,26.39
2018-09-17T07:44:02.705Z,26.07
2018-09-17T07:45:02.702Z,25.70
2018-09-17T07:46:02.687Z,25.50
2018-09-17T07:47:02.685Z,25.60
2018-09-17T07:48:02.679Z,25.27
2018-09-17T07:49:02.657Z,25.21
2018-09-17T07:50:02.670Z,25.06
2018-09-17T07:51:02.657Z,24.99
2018-09-17T07:52:02.648Z,24.81
2018-09-17T07:53:02.691Z,24.65
2018-09-17T07:54:02.603Z,24.43
2018-09-17T07:55:02.592Z,24.18
2018-09-17T07:56:02.601Z,23.84
2018-09-17T07:57:02.587Z,23.36
2018-09-17T07:58:03.172Z,23.15
2018-09-17T07:59:02.536Z,23.12
2018-09-17T08:00:02.539Z,23.05
2018-09-17T08:01:02.551Z,23.07
2018-09-17T08:02:02.534Z,23.04
2018-09-17T08:03:02.514Z,23.02
2018-09-17T08:04:02.488Z,23.02
2018-09-17T08:05:02.507Z,23.02
2018-09-17T08:06:02.465Z,22.98
2018-09-17T08:07:02.468Z,22.86
2018-09-17T08:08:02.457Z,22.85
2018-09-17T08:09:02.454Z,22.75
2018-09-17T08:10:02.420Z,22.75
2018-09-17T08:11:02.464Z,22.68
2018-09-17T08:12:02.405Z,22.65
2018-09-17T08:13:02.400Z,22.65
2018-09-17T08:14:02.381Z,22.65
2018-09-17T08:15:02.361Z,22.61
2018-09-17T08:16:02.349Z,22.55
2018-09-17T08:17:02.446Z,22.47
2018-09-17T08:18:02.355Z,22.35
2018-09-17T08:19:02.327Z,22.30
2018-09-17T08:20:02.351Z,22.27
2018-09-17T08:21:02.303Z,22.35
2018-09-17T08:22:02.295Z,22.28
2018-09-17T08:23:02.289Z,22.33
2018-09-17T08:24:02.262Z,22.27
2018-09-17T08:25:02.272Z,22.14
2018-09-17T08:26:02.266Z,22.17
2018-09-17T08:27:02.233Z,22.09
2018-09-17T08:28:02.254Z,22.00
2018-09-17T08:29:02.237Z,22.07
2018-09-17T08:30:02.205Z,22.07
2018-09-17T08:31:02.220Z,21.92
2018-09-17T08:32:02.180Z,21.83
2018-09-17T08:33:02.170Z,21.83
2018-09-17T08:34:02.150Z,21.77
2018-09-17T08:35:02.177Z,21.68
2018-09-17T08:36:02.169Z,21.65
2018-09-17T08:37:02.118Z,21.68
2018-09-17T08:38:02.159Z,21.74
2018-09-17T08:39:02.126Z,21.64
2018-09-17T08:40:02.137Z,21.68
2018-09-17T08:41:02.075Z,21.58
2018-09-17T08:42:02.102Z,21.75
2018-09-17T08:43:02.098Z,21.64
2018-09-17T08:44:02.050Z,21.68
2018-09-17T08:45:02.059Z,21.59
2018-09-17T08:46:02.013Z,21.65
2018-09-17T08:47:02.029Z,21.75
2018-09-17T08:48:02.006Z,21.82
2018-09-17T08:49:02.017Z,21.77
2018-09-17T08:50:01.975Z,21.83
2018-09-17T08:51:01.972Z,21.75
2018-09-17T08:52:01.977Z,21.72
2018-09-17T08:53:02.014Z,21.74
2018-09-17T08:54:01.941Z,21.88
2018-09-17T08:55:01.913Z,21.98
2018-09-17T08:56:01.966Z,21.94
2018-09-17T08:57:01.909Z,22.02
2018-09-17T08:58:01.976Z,22.05
2018-09-17T08:59:01.869Z,22.10
2018-09-17T09:00:01.867Z,22.10
2018-09-17T09:01:01.864Z,22.06
2018-09-17T09:02:01.837Z,22.12
2018-09-17T09:03:01.846Z,22.07
2018-09-17T09:04:01.884Z,21.98
2018-09-17T09:05:01.858Z,22.06
2018-09-17T09:06:01.828Z,21.94
2018-09-17T09:07:01.809Z,22.09
2018-09-17T09:08:01.853Z,21.96
2018-09-17T09:09:01.761Z,21.96
2018-09-17T09:10:01.776Z,21.98
2018-09-17T09:11:01.737Z,21.88
2018-09-17T09:12:01.778Z,21.94
2018-09-17T09:13:01.719Z,21.96
2018-09-17T09:14:01.713Z,21.99
2018-09-17T09:15:01.701Z,21.94
2018-09-17T09:16:01.686Z,21.91
2018-09-17T09:17:01.700Z,21.80
2018-09-17T09:18:01.679Z,21.90
2018-09-17T09:19:01.653Z,21.83
2018-09-17T09:20:01.627Z,21.92
2018-09-17T09:21:01.646Z,21.80
2018-09-17T09:22:01.609Z,21.75
2018-09-17T09:23:01.678Z,21.86
2018-09-17T09:24:01.636Z,21.94
2018-09-17T09:25:01.578Z,21.92
2018-09-17T09:26:01.603Z,22.00
2018-09-17T09:27:01.564Z,21.94
2018-09-17T09:28:01.542Z,22.07
2018-09-17T09:29:01.541Z,22.05
2018-09-17T09:30:01.542Z,22.10
2018-09-17T09:31:01.517Z,22.17
2018-09-17T09:32:01.510Z,22.20
2018-09-17T09:33:01.492Z,22.21
2018-09-17T09:34:01.486Z,22.28
2018-09-17T09:35:01.464Z,22.36
2018-09-17T09:36:01.473Z,22.45
2018-09-17T09:37:01.444Z,22.43
2018-09-17T09:38:01.481Z,22.46
2018-09-17T09:39:01.442Z,22.45
2018-09-17T09:40:01.408Z,22.54
2018-09-17T09:41:01.416Z,22.51
2018-09-17T09:42:01.396Z,22.52
2018-09-17T09:43:02.375Z,22.52
2018-09-17T09:44:01.399Z,22.57
2018-09-17T09:45:01.353Z,22.58
2018-09-17T09:46:01.351Z,22.67
2018-09-17T09:47:01.358Z,22.54
2018-09-17T09:48:01.355Z,22.54
2018-09-17T09:49:01.318Z,22.57
2018-09-17T09:50:01.326Z,22.55
2018-09-17T09:51:01.283Z,22.57
2018-09-17T09:52:01.272Z,22.67
2018-09-17T09:53:01.329Z,22.61
2018-09-17T09:54:01.268Z,22.67
2018-09-17T09:55:01.238Z,22.73
2018-09-17T09:56:01.230Z,22.73
2018-09-17T09:57:01.271Z,22.75
2018-09-17T09:58:01.209Z,22.73
2018-09-17T09:59:01.232Z,22.85
2018-09-17T10:00:01.209Z,22.86
2018-09-17T10:01:01.174Z,22.94
2018-09-17T10:02:01.157Z,23.00
2018-09-17T10:03:01.177Z,23.02
2018-09-17T10:04:01.142Z,23.09
2018-09-17T10:05:01.183Z,23.10
2018-09-17T10:06:01.196Z,23.05
2018-09-17T10:07:01.111Z,23.10
2018-09-17T10:08:01.099Z,23.01
2018-09-17T10:09:01.084Z,22.92
2018-09-17T10:10:01.081Z,22.88
2018-09-17T10:11:01.106Z,22.95
2018-09-17T10:12:01.092Z,22.92
2018-09-17T10:13:01.029Z,22.94
2018-09-17T10:14:01.060Z,22.95
2018-09-17T10:15:01.010Z,23.12
2018-09-17T10:16:00.995Z,23.12
2018-09-17T10:17:01.089Z,23.25
2018-09-17T10:18:00.982Z,23.31
2018-09-17T10:19:00.968Z,23.38
2018-09-17T10:20:01.653Z,23.40
2018-09-17T10:21:00.942Z,23.43
2018-09-17T10:22:00.953Z,23.38
2018-09-17T10:23:00.962Z,23.38
2018-09-17T10:24:00.994Z,23.40
2018-09-17T10:25:00.965Z,23.47
2018-09-17T10:26:00.888Z,23.50
2018-09-17T10:27:19.152Z,23.57
2018-09-17T10:28:00.870Z,23.61
2018-09-17T10:29:00.852Z,23.63
2018-09-17T10:30:00.985Z,23.68
2018-09-17T10:31:00.834Z,23.75
2018-09-17T10:32:00.873Z,23.75
2018-09-17T10:33:00.873Z,23.87
2018-09-17T10:34:00.802Z,23.94
2018-09-17T10:35:00.805Z,23.87
2018-09-17T10:36:00.804Z,23.91
2018-09-17T10:37:00.765Z,23.94
2018-09-17T10:38:00.754Z,24.09
2018-09-17T10:39:00.771Z,24.02
2018-09-17T10:40:00.735Z,23.97
2018-09-17T10:41:00.749Z,24.08
2018-09-17T10:42:00.757Z,24.13
2018-09-17T10:43:00.760Z,24.13
2018-09-17T10:44:00.687Z,24.10
2018-09-17T10:45:00.672Z,24.08
2018-09-17T10:46:00.671Z,24.09
2018-09-17T10:47:00.719Z,24.18
2018-09-17T10:48:00.678Z,24.25
2018-09-17T10:49:00.629Z,24.25
2018-09-17T10:50:00.618Z,24.21
2018-09-17T10:51:00.645Z,24.25
2018-09-17T10:52:00.659Z,24.32
2018-09-17T10:53:00.598Z,24.43
2018-09-17T10:54:00.599Z,24.61
2018-09-17T10:55:00.562Z,24.73
2018-09-17T10:56:00.595Z,24.81
2018-09-17T10:57:00.571Z,24.88
2018-09-17T10:58:00.547Z,24.93
2018-09-17T10:59:00.522Z,24.98
2018-09-17T11:00:00.524Z,25.13
2018-09-17T11:01:00.500Z,25.03
2018-09-17T11:02:00.514Z,24.99
2018-09-17T11:03:00.549Z,24.90
2018-09-17T11:04:00.469Z,24.90
2018-09-17T11:05:00.510Z,25.06
2018-09-17T11:06:00.485Z,25.10
2018-09-17T11:07:00.479Z,25.18
2018-09-17T11:08:00.430Z,25.24
2018-09-17T11:09:00.459Z,25.38
2018-09-17T11:10:00.401Z,25.28
2018-09-17T11:11:00.399Z,25.32
2018-09-17T11:12:00.461Z,25.27
2018-09-17T11:13:00.373Z,25.17
2018-09-17T11:14:00.390Z,25.17
2018-09-17T11:15:00.349Z,25.30
2018-09-17T11:16:00.349Z,25.38
2018-09-17T11:17:00.335Z,25.24
2018-09-17T11:18:00.344Z,25.32
2018-09-17T11:19:00.340Z,25.18
2018-09-17T11:20:00.294Z,25.10
2018-09-17T11:21:00.302Z,24.96
2018-09-17T11:22:00.304Z,24.93
2018-09-17T11:23:00.283Z,24.95
2018-09-17T11:24:00.262Z,24.98
2018-09-17T11:25:00.279Z,25.03
2018-09-17T11:26:00.232Z,25.03
2018-09-17T11:27:00.260Z,25.15
2018-09-17T11:28:00.215Z,25.28
2018-09-17T11:29:00.206Z,25.38
2018-09-17T11:30:00.223Z,25.28
2018-09-17T11:31:00.226Z,25.28
2018-09-17T11:32:01.168Z,25.27
2018-09-17T11:33:00.169Z,25.17
2018-09-17T11:34:00.159Z,25.20
2018-09-17T11:35:00.163Z,25.21
2018-09-17T11:36:00.125Z,25.23
2018-09-17T11:37:00.113Z,25.20
2018-09-17T11:38:00.130Z,25.27
2018-09-17T11:39:00.095Z,25.38
2018-09-17T11:40:00.077Z,25.39
2018-09-17T11:41:00.084Z,25.46
2018-09-17T11:42:00.054Z,25.43
2018-09-17T11:43:00.073Z,25.28
2018-09-17T11:44:00.067Z,25.21
2018-09-17T11:45:00.050Z,25.24
2018-09-17T11:46:00.021Z,25.17
2018-09-17T11:47:00.081Z,25.15
2018-09-17T11:47:59.988Z,25.18
2018-09-17T11:48:59.974Z,25.28
2018-09-17T11:49:59.970Z,25.33
2018-09-17T11:50:59.956Z,25.28
2018-09-17T11:51:59.990Z,25.38
2018-09-17T11:52:59.977Z,25.52
2018-09-17T11:54:00.051Z,25.62
2018-09-17T11:54:59.917Z,25.61
2018-09-17T11:55:59.914Z,25.77
2018-09-17T11:56:59.923Z,25.57
2018-09-17T11:57:59.883Z,25.46
2018-09-17T11:58:59.889Z,25.32
2018-09-17T11:59:59.890Z,25.17
2018-09-17T12:00:59.852Z,25.06
2018-09-17T12:01:59.849Z,25.06
2018-09-17T12:02:59.830Z,25.06
2018-09-17T12:03:59.816Z,25.09
2018-09-17T12:04:59.870Z,25.06
2018-09-17T12:05:59.796Z,25.10
2018-09-17T12:06:59.782Z,25.15
2018-09-17T12:07:59.787Z,25.38
2018-09-17T12:08:59.763Z,25.50
2018-09-17T12:09:59.780Z,25.67
2018-09-17T12:10:59.761Z,25.85
2018-09-17T12:12:00.756Z,25.90
2018-09-17T12:12:59.740Z,25.95
2018-09-17T12:13:59.707Z,25.97
2018-09-17T12:14:59.716Z,25.95
2018-09-17T12:15:59.683Z,25.97
2018-09-17T12:16:59.668Z,25.95
2018-09-17T12:17:59.669Z,25.95
2018-09-17T12:18:59.657Z,26.13
2018-09-17T12:19:59.666Z,26.18
2018-09-17T12:20:59.630Z,26.07
2018-09-17T12:21:59.642Z,26.18
2018-09-17T12:22:59.607Z,26.13
2018-09-17T12:23:59.623Z,26.06
2018-09-17T12:24:59.633Z,25.97
2018-09-17T12:25:59.571Z,25.77
2018-09-17T12:26:59.557Z,25.64
2018-09-17T12:27:59.545Z,25.70
2018-09-17T12:28:59.536Z,25.72
2018-09-17T12:29:59.551Z,25.73
2018-09-17T12:30:59.545Z,25.72
2018-09-17T12:31:59.503Z,25.76
2018-09-17T12:32:59.525Z,25.80
2018-09-17T12:33:59.597Z,25.76
2018-09-17T12:34:59.469Z,25.82
2018-09-17T12:35:59.453Z,25.85
2018-09-17T12:36:59.587Z,25.98
2018-09-17T12:37:59.427Z,26.18
2018-09-17T12:38:59.424Z,26.17
2018-09-17T12:39:59.413Z,26.29
2018-09-17T12:40:59.396Z,26.44
2018-09-17T12:41:59.413Z,26.66
2018-09-17T12:42:59.397Z,26.73
2018-09-17T12:43:59.365Z,26.73
2018-09-17T12:44:59.361Z,26.82
2018-09-17T12:45:59.384Z,26.85
2018-09-17T12:46:59.356Z,26.73
2018-09-17T12:47:59.324Z,26.65
2018-09-17T12:48:59.332Z,26.60
2018-09-17T12:49:59.299Z,26.60
2018-09-17T12:50:59.292Z,26.73
2018-09-17T12:52:00.159Z,26.70
2018-09-17T12:52:59.268Z,26.81
2018-09-17T12:53:59.253Z,27.03
2018-09-17T12:54:59.262Z,27.18
2018-09-17T12:55:59.234Z,27.28
2018-09-17T12:56:59.242Z,27.34
2018-09-17T12:57:59.212Z,27.36
2018-09-17T12:58:59.195Z,27.40
2018-09-17T12:59:59.191Z,27.37
2018-09-17T13:00:59.194Z,27.27
2018-09-17T13:01:59.203Z,27.19
2018-09-17T13:02:59.146Z,27.27
2018-09-17T13:03:59.165Z,27.29
2018-09-17T13:04:59.131Z,27.28
2018-09-17T13:05:59.113Z,27.37
2018-09-17T13:06:59.144Z,27.36
2018-09-17T13:07:59.091Z,27.51
2018-09-17T13:08:59.081Z,27.49
2018-09-17T13:09:59.075Z,27.63
2018-09-17T13:10:59.089Z,27.66
2018-09-17T13:11:59.072Z,27.62
2018-09-17T13:12:59.059Z,27.60
2018-09-17T13:13:59.020Z,27.46
2018-09-17T13:14:59.234Z,27.54
2018-09-17T13:15:59.005Z,27.66
2018-09-17T13:16:58.994Z,27.69
2018-09-17T13:17:58.979Z,27.77
2018-09-17T13:18:58.982Z,27.82
2018-09-17T13:19:58.985Z,27.85
2018-09-17T13:20:58.957Z,27.70
2018-09-17T13:21:58.940Z,27.49
2018-09-17T13:22:58.937Z,27.43
2018-09-17T13:23:58.913Z,27.37